Pagrindinis puslapis
METAR-TAF:

METAR-TAF

Oro uostai :

Hasvik, Norvegija

platuma: 70-29N, ilguma: 022-09E, Aukštis: 10 m

Dabartinis oras

Ataskaita buvo paskelbta 41 minutes, ne 07:50 UTC
Vėjas 8 kt iš Šiaurės/Šiaurės Vakarų
Temperatūra 3°C
Drėgmė 81%
Slėgis 993 hPa
Matomumas 10 km arba daugiau
Mažai debesys ne aukštis 900 ft
Išsisklaidę debesys ne aukštis 1300 ft
Su prošvaistėmis ne aukštis 20500 ft

METAR: ENHK 290750Z 34008KT 9999 FEW009 SCT013 BKN205 03/00 Q0993

Laikas: 09:31 (08:31 UTC)


TAF: trūkstamas

Orai ataskaitas ir orų prognozės (METAR, TAF).

turimą stotys yra geltonos ir raudonos taškus žemėlapyje.

Perkelti pele per norėdami pamatyti stoties vardą.

Tada spustelėkite, norėdami matyti oro stebėjimo ir prognozės.

Norėdami pakeisti žemėlapį: spustelėkite ant žalios mygtukų su juodo kryžiaus žemyn,; žalią mygtuką su brūkšneliu, jei norite nutolinti; arba žalių rodyklių gretimoms žemėlapius.


METAR-TAF: